createdAt,value
2022-12-24T00:02:41.907Z,6.79
2022-12-24T00:07:46.588Z,5.83
2022-12-24T00:12:52.778Z,5.77
2022-12-24T00:17:57.262Z,6.27
2022-12-24T00:23:01.868Z,5.87
2022-12-24T00:28:07.904Z,6.53
2022-12-24T00:33:12.808Z,6.28
2022-12-24T00:38:17.426Z,6.55
2022-12-24T00:43:23.373Z,6.93
2022-12-24T00:48:28.216Z,6.64
2022-12-24T00:53:32.806Z,6.56
2022-12-24T00:58:39.297Z,6.77
2022-12-24T01:03:44.216Z,6.80
2022-12-24T01:08:52.107Z,6.26
2022-12-24T01:13:58.948Z,5.98
2022-12-24T01:19:03.414Z,5.46
2022-12-24T01:24:08.559Z,5.60
2022-12-24T01:29:14.647Z,5.05
2022-12-24T01:34:19.000Z,5.54
2022-12-24T01:39:23.432Z,5.13
2022-12-24T01:44:36.130Z,4.78
2022-12-24T01:49:44.330Z,4.53
2022-12-24T01:54:52.015Z,4.43
2022-12-24T02:00:02.431Z,4.67
2022-12-24T02:05:13.229Z,4.79
2022-12-24T02:10:18.800Z,4.47
2022-12-24T02:15:26.198Z,4.73
2022-12-24T02:21:00.360Z,4.95
2022-12-24T02:26:24.151Z,5.33
2022-12-24T02:31:38.065Z,5.34
2022-12-24T02:36:48.367Z,4.81
2022-12-24T02:42:08.536Z,4.80
2022-12-24T02:47:18.301Z,5.02
2022-12-24T02:52:34.770Z,5.20
2022-12-24T02:57:52.097Z,5.33
2022-12-24T03:03:26.196Z,5.24
2022-12-24T03:08:36.644Z,4.82
2022-12-24T03:13:42.828Z,4.86
2022-12-24T03:18:51.283Z,4.60
2022-12-24T03:23:56.098Z,4.86
2022-12-24T03:29:03.323Z,4.70
2022-12-24T03:34:09.294Z,4.65
2022-12-24T03:39:13.971Z,4.75
2022-12-24T03:44:18.397Z,4.34
2022-12-24T03:49:24.726Z,4.65
2022-12-24T03:54:29.428Z,4.64
2022-12-24T03:59:34.125Z,4.64
2022-12-24T04:04:40.059Z,5.22
2022-12-24T04:09:45.038Z,4.70
2022-12-24T04:14:51.176Z,4.35
2022-12-24T04:19:57.759Z,4.40
2022-12-24T04:25:02.375Z,4.22
2022-12-24T04:30:08.302Z,4.71
2022-12-24T04:35:14.464Z,5.18
2022-12-24T04:40:19.251Z,5.95
2022-12-24T04:45:24.634Z,6.04
2022-12-24T04:50:30.665Z,6.42
2022-12-24T04:55:35.256Z,6.39
2022-12-24T05:00:39.936Z,6.69
2022-12-24T05:05:46.034Z,6.84
2022-12-24T05:10:57.067Z,6.73
2022-12-24T05:16:02.530Z,6.71
2022-12-24T05:21:11.785Z,6.52
2022-12-24T05:26:25.079Z,6.41
2022-12-24T05:31:32.181Z,6.40
2022-12-24T05:36:38.255Z,6.83
2022-12-24T05:41:42.982Z,6.43
2022-12-24T05:46:47.755Z,6.32
2022-12-24T05:51:53.812Z,6.52
2022-12-24T05:56:58.413Z,6.38
2022-12-24T06:02:03.106Z,6.01
2022-12-24T06:07:09.352Z,5.79
2022-12-24T06:12:13.993Z,6.37
2022-12-24T06:17:18.673Z,6.86
2022-12-24T06:22:24.763Z,6.74
2022-12-24T06:27:29.277Z,6.99
2022-12-24T06:32:33.889Z,6.95
2022-12-24T06:37:39.935Z,6.96
2022-12-24T06:42:44.732Z,6.41
2022-12-24T06:47:51.376Z,5.86
2022-12-24T06:52:57.904Z,5.97
2022-12-24T06:58:02.697Z,5.07
2022-12-24T07:03:07.322Z,5.80
2022-12-24T07:08:13.596Z,5.54
2022-12-24T07:13:18.480Z,5.77
2022-12-24T07:18:22.918Z,5.64
2022-12-24T07:23:28.874Z,5.52
2022-12-24T07:28:33.582Z,5.41
2022-12-24T07:33:39.399Z,5.11
2022-12-24T07:38:45.433Z,6.02
2022-12-24T07:43:50.087Z,5.79
2022-12-24T07:48:55.602Z,5.73
2022-12-24T07:54:01.487Z,5.26
2022-12-24T07:59:06.186Z,5.66
2022-12-24T08:04:10.727Z,5.90
2022-12-24T08:09:16.992Z,6.13
2022-12-24T08:14:21.570Z,7.01
2022-12-24T08:19:26.237Z,6.81
2022-12-24T08:24:32.129Z,6.19
2022-12-24T08:29:36.813Z,5.93
2022-12-24T08:34:42.100Z,5.78
2022-12-24T08:39:47.945Z,5.48
2022-12-24T08:44:52.291Z,6.14
2022-12-24T08:49:56.888Z,5.73
2022-12-24T08:55:02.991Z,5.73
2022-12-24T09:00:09.637Z,5.85
2022-12-24T09:05:14.121Z,6.61
2022-12-24T09:10:20.400Z,5.91
2022-12-24T09:15:24.973Z,6.09
2022-12-24T09:20:29.805Z,6.27
2022-12-24T09:25:35.709Z,6.93
2022-12-24T09:30:40.257Z,6.59
2022-12-24T09:35:44.796Z,6.64
2022-12-24T09:40:52.142Z,7.05
2022-12-24T09:46:08.585Z,7.85
2022-12-24T09:51:16.645Z,7.80
2022-12-24T09:56:25.773Z,7.35
2022-12-24T10:01:33.162Z,7.64
2022-12-24T10:06:46.545Z,7.31
2022-12-24T10:12:02.334Z,7.51
2022-12-24T10:17:31.696Z,6.87
2022-12-24T10:22:44.656Z,6.31
2022-12-24T10:27:51.373Z,7.28
2022-12-24T10:32:56.630Z,7.39
2022-12-24T10:38:01.083Z,7.03
2022-12-24T10:43:15.254Z,6.87
2022-12-24T10:48:29.500Z,6.04
2022-12-24T10:53:42.060Z,6.64
2022-12-24T10:58:52.973Z,6.71
2022-12-24T11:04:05.003Z,7.12
2022-12-24T11:09:24.221Z,7.54
2022-12-24T11:14:36.047Z,7.08
2022-12-24T11:19:41.008Z,7.54
2022-12-24T11:24:50.326Z,7.53
2022-12-24T11:30:20.279Z,7.36
2022-12-24T11:35:26.734Z,7.31
2022-12-24T11:40:36.122Z,7.56
2022-12-24T11:45:50.886Z,7.20
2022-12-24T11:50:59.123Z,7.27
2022-12-24T11:56:10.127Z,7.21
2022-12-24T12:01:20.581Z,7.43
2022-12-24T12:06:30.061Z,7.11
2022-12-24T12:11:37.107Z,7.39
2022-12-24T12:17:05.295Z,7.31
2022-12-24T12:22:26.114Z,7.85
2022-12-24T12:27:35.231Z,7.60
2022-12-24T12:32:47.608Z,7.03
2022-12-24T12:37:59.013Z,7.43
2022-12-24T12:43:20.394Z,7.18
2022-12-24T12:49:02.247Z,7.14
2022-12-24T12:54:38.829Z,7.14
2022-12-24T12:59:49.676Z,6.91
2022-12-24T13:05:19.549Z,7.16
2022-12-24T13:10:51.525Z,6.78
2022-12-24T13:16:30.136Z,6.73
2022-12-24T13:21:36.484Z,6.44
2022-12-24T13:26:41.266Z,6.55
2022-12-24T13:31:52.036Z,6.68
2022-12-24T13:37:06.305Z,6.66
2022-12-24T13:42:10.720Z,6.78
2022-12-24T13:47:32.250Z,6.45
2022-12-24T13:52:42.459Z,6.68
2022-12-24T13:57:55.165Z,6.53
2022-12-24T14:03:06.541Z,6.52
2022-12-24T14:08:16.725Z,6.61
2022-12-24T14:13:53.311Z,6.58
2022-12-24T14:19:01.536Z,6.74
2022-12-24T14:24:15.348Z,6.55
2022-12-24T14:29:26.684Z,6.64
2022-12-24T14:34:32.131Z,6.53
2022-12-24T14:39:42.723Z,6.60
2022-12-24T14:44:56.680Z,6.44
2022-12-24T14:50:36.214Z,6.47
2022-12-24T14:55:45.512Z,6.47
2022-12-24T15:00:50.761Z,6.54
2022-12-24T15:05:58.125Z,6.49
2022-12-24T15:11:07.094Z,6.30
2022-12-24T15:16:14.920Z,6.39
2022-12-24T15:21:23.769Z,6.23
2022-12-24T15:26:32.286Z,6.28
2022-12-24T15:31:38.112Z,6.42
2022-12-24T15:36:42.640Z,6.04
2022-12-24T15:42:05.188Z,6.31
2022-12-24T15:47:17.763Z,6.31
2022-12-24T15:52:25.505Z,6.11
2022-12-24T15:57:35.154Z,6.09
2022-12-24T16:02:41.961Z,6.05
2022-12-24T16:08:11.367Z,6.25
2022-12-24T16:13:20.307Z,6.16
2022-12-24T16:18:27.900Z,5.64
2022-12-24T16:23:39.183Z,5.92
2022-12-24T16:28:45.452Z,5.72
2022-12-24T16:33:54.570Z,5.60
2022-12-24T16:39:16.317Z,6.03
2022-12-24T16:44:25.216Z,5.93
2022-12-24T16:49:32.163Z,6.33
2022-12-24T16:54:36.973Z,5.89
2022-12-24T16:59:42.861Z,5.39
2022-12-24T17:04:48.353Z,5.65
2022-12-24T17:09:53.060Z,5.53
2022-12-24T17:15:00.362Z,5.44
2022-12-24T17:20:05.911Z,5.62
2022-12-24T17:25:13.338Z,5.70
2022-12-24T17:30:19.660Z,5.55
2022-12-24T17:35:24.588Z,5.59
2022-12-24T17:40:29.054Z,5.42
2022-12-24T17:45:35.067Z,5.79
2022-12-24T17:50:41.060Z,5.80
2022-12-24T17:55:45.355Z,6.22
2022-12-24T18:00:52.587Z,5.44
2022-12-24T18:05:57.290Z,6.07
2022-12-24T18:11:01.800Z,5.72
2022-12-24T18:16:16.872Z,6.27
2022-12-24T18:21:26.687Z,6.20
2022-12-24T18:26:33.446Z,6.03
2022-12-24T18:31:40.062Z,5.81
2022-12-24T18:36:47.180Z,5.53
2022-12-24T18:41:55.871Z,5.30
2022-12-24T18:47:02.155Z,5.78
2022-12-24T18:52:07.884Z,5.88
2022-12-24T18:57:12.407Z,5.69
2022-12-24T19:02:18.470Z,6.09
2022-12-24T19:07:23.268Z,5.89
2022-12-24T19:12:27.808Z,5.64
2022-12-24T19:17:33.987Z,6.76
2022-12-24T19:22:38.601Z,6.37
2022-12-24T19:27:43.280Z,5.99
2022-12-24T19:32:51.399Z,6.30
2022-12-24T19:37:55.898Z,6.43
2022-12-24T19:43:00.676Z,6.62
2022-12-24T19:48:09.535Z,6.82
2022-12-24T19:53:14.130Z,6.36
2022-12-24T19:58:18.953Z,6.27
2022-12-24T20:03:24.973Z,5.93
2022-12-24T20:08:29.835Z,5.80
2022-12-24T20:13:34.542Z,5.72
2022-12-24T20:18:40.777Z,5.78
2022-12-24T20:23:45.252Z,5.60
2022-12-24T20:28:50.511Z,5.91
2022-12-24T20:33:57.832Z,5.72
2022-12-24T20:39:02.841Z,6.16
2022-12-24T20:44:07.700Z,5.76
2022-12-24T20:49:14.540Z,5.65
2022-12-24T20:54:21.084Z,5.95
2022-12-24T20:59:25.795Z,5.77
2022-12-24T21:04:31.768Z,5.92
2022-12-24T21:09:36.480Z,6.09
2022-12-24T21:14:41.010Z,6.12
2022-12-24T21:19:47.005Z,5.90
2022-12-24T21:24:51.481Z,5.66
2022-12-24T21:29:56.023Z,5.72
2022-12-24T21:35:02.219Z,5.85
2022-12-24T21:40:08.360Z,5.93
2022-12-24T21:45:14.793Z,5.76
2022-12-24T21:50:34.821Z,6.07
2022-12-24T21:55:39.307Z,5.69
2022-12-24T22:00:43.930Z,5.74
2022-12-24T22:05:49.836Z,5.85
2022-12-24T22:11:26.323Z,5.90
2022-12-24T22:16:31.694Z,6.00
2022-12-24T22:21:37.716Z,6.01
2022-12-24T22:26:42.279Z,5.81
2022-12-24T22:31:46.937Z,5.73
2022-12-24T22:36:52.821Z,5.49
2022-12-24T22:41:58.137Z,5.11
2022-12-24T22:47:02.754Z,5.38
2022-12-24T22:52:10.399Z,5.16
2022-12-24T22:57:14.918Z,5.33
2022-12-24T23:02:27.537Z,5.71
2022-12-24T23:07:34.572Z,5.46
2022-12-24T23:12:56.401Z,5.89
2022-12-24T23:18:00.837Z,6.01
2022-12-24T23:23:06.963Z,5.78
2022-12-24T23:28:11.512Z,6.01
2022-12-24T23:33:15.971Z,6.08
2022-12-24T23:38:25.244Z,6.45
2022-12-24T23:43:33.296Z,6.28
2022-12-24T23:48:37.880Z,6.35
2022-12-24T23:53:44.418Z,6.43
2022-12-24T23:58:52.515Z,6.00
